Time;durP1;ratioP1;P1;durP2;ratioP2;P2;SDS_P1;SDS_P2;PMS_P1;PMS_P2;Temp;Humidity;BMP_temperature;BMP_pressure;BME280_temperature;BME280_humidity;BME280_pressure;Samples;Min_cycle;Max_cycle;Signal;HPM_P1;HPM_P2
2022/05/23 00:01:35;;;;;;;10.63;2.53;;;;;;;-143.84;61.83;45028.13;5110577;28;20502;-70
2022/05/23 00:04:02;;;;;;;4.73;3.07;;;;;;;-143.84;61.70;45028.13;5110231;28;20429;-70
2022/05/23 00:06:29;;;;;;;15.33;3.10;;;;;;;-143.84;61.95;45024.31;5110526;28;20549;-70
2022/05/23 00:08:56;;;;;;;8.00;2.53;;;;;;;-143.84;62.26;45012.88;5110561;28;20495;-70
2022/05/23 00:11:23;;;;;;;8.50;2.20;;;;;;;-143.84;62.55;44997.66;5110789;28;20446;-70
2022/05/23 00:13:51;;;;;;;14.03;2.70;;;;;;;-143.84;62.86;45039.53;5110719;28;20500;-71
2022/05/23 00:16:23;;;;;;;13.33;2.47;;;;;;;-143.84;62.83;44999.56;5110637;28;20437;-70
2022/05/23 00:18:51;;;;;;;10.27;2.80;;;;;;;-143.84;62.20;45012.88;5110554;28;20439;-70
2022/05/23 00:21:19;;;;;;;11.90;2.60;;;;;;;-143.84;62.21;45031.94;5110436;28;20488;-70
2022/05/23 00:23:46;;;;;;;10.83;2.73;;;;;;;-143.84;62.35;45041.44;5110485;28;20442;-71
2022/05/23 00:26:16;;;;;;;11.77;2.30;;;;;;;-143.84;62.71;45035.75;5110485;28;20428;-70
2022/05/23 00:28:43;;;;;;;11.00;2.57;;;;;;;-143.84;63.00;45009.09;5110384;28;20819;-71
2022/05/23 00:31:11;;;;;;;5.20;2.40;;;;;;;-143.84;62.74;45030.03;5110295;28;20496;-70
2022/05/23 00:36:25;;;;;;;11.93;2.67;;;;;;;-143.84;62.55;45030.03;5110291;28;20523;-70
2022/05/23 00:38:54;;;;;;;6.07;2.30;;;;;;;-143.84;62.58;45043.34;5110269;28;20511;-71
2022/05/23 00:44:19;;;;;;;7.60;2.97;;;;;;;-143.84;63.13;45043.34;5110326;28;20956;-71
2022/05/23 00:46:51;;;;;;;6.20;2.43;;;;;;;-143.84;62.85;45022.41;5110065;28;20483;-71
2022/05/23 00:49:23;;;;;;;7.53;3.17;;;;;;;-143.84;63.47;45033.84;5110194;28;20488;-71
2022/05/23 00:51:51;;;;;;;7.80;2.80;;;;;;;-143.84;63.48;45028.13;5109690;28;20492;-70
2022/05/23 00:54:19;;;;;;;8.23;2.40;;;;;;;-143.84;64.28;45039.53;5109335;28;20525;-71
2022/05/23 00:56:49;;;;;;;12.50;2.90;;;;;;;-143.84;64.63;45005.28;5109799;28;20437;-71
2022/05/23 00:59:21;;;;;;;10.13;3.20;;;;;;;-143.84;65.22;45018.59;5109815;28;20512;-71
2022/05/23 01:01:48;;;;;;;9.07;3.37;;;;;;;-143.84;65.90;45020.50;5109480;28;20543;-71
2022/05/23 01:04:16;;;;;;;8.57;2.80;;;;;;;-143.84;67.13;45020.50;5109990;28;20979;-71
2022/05/23 01:06:45;;;;;;;10.37;2.63;;;;;;;-143.84;67.70;45039.53;5109514;28;20524;-71
2022/05/23 01:09:13;;;;;;;15.43;2.70;;;;;;;-143.84;67.78;45022.41;5109888;28;20410;-71
2022/05/23 01:11:41;;;;;;;14.63;2.90;;;;;;;-143.84;68.81;45033.84;5109749;28;20440;-71
2022/05/23 01:14:09;;;;;;;3.00;2.80;;;;;;;-143.84;68.83;45009.09;5109587;28;20859;-71
2022/05/23 01:16:39;;;;;;;6.37;2.77;;;;;;;-143.84;67.79;45018.59;5109229;28;20432;-71
2022/05/23 01:19:06;;;;;;;9.07;2.30;;;;;;;-143.84;67.34;45028.13;5109937;28;20530;-71
2022/05/23 01:21:44;;;;;;;21.33;3.23;;;;;;;-143.84;67.09;45041.44;5109822;28;20473;-71
2022/05/23 01:24:22;;;;;;;10.27;2.17;;;;;;;-143.84;67.01;45045.25;5108803;28;20476;-71
2022/05/23 01:26:53;;;;;;;4.70;2.47;;;;;;;-143.84;67.28;45030.03;5108613;28;20449;-71
2022/05/23 01:29:20;;;;;;;17.30;3.30;;;;;;;-143.84;66.93;45035.75;5109351;28;20528;-71
2022/05/23 01:31:47;;;;;;;13.10;2.97;;;;;;;-143.84;67.33;45020.50;5109618;28;20446;-71
2022/05/23 01:34:15;;;;;;;10.63;2.43;;;;;;;-143.84;67.60;45049.06;5108802;28;20441;-71
2022/05/23 01:36:42;;;;;;;5.77;2.63;;;;;;;-143.84;67.53;45016.69;5108893;28;20479;-71
2022/05/23 01:39:09;;;;;;;7.73;2.43;;;;;;;-143.84;66.83;45005.28;5109195;28;20971;-71
2022/05/23 01:41:37;;;;;;;4.23;2.30;;;;;;;-143.84;66.64;45041.44;5109087;28;20470;-71
2022/05/23 01:44:07;;;;;;;4.17;2.80;;;;;;;-143.84;66.38;45018.59;5109172;28;20434;-71
2022/05/23 01:46:34;;;;;;;8.13;3.13;;;;;;;-143.84;67.33;45056.69;5109152;28;20451;-71
2022/05/23 01:49:01;;;;;;;10.10;2.83;;;;;;;-143.84;68.29;45037.66;5107934;28;20447;-71
2022/05/23 01:51:28;;;;;;;9.37;3.43;;;;;;;-143.84;68.80;45047.16;5108529;28;20498;-71
2022/05/23 01:53:56;;;;;;;31.03;4.10;;;;;;;-143.84;68.90;45020.50;5108627;28;20948;-71
2022/05/23 01:56:23;;;;;;;6.37;2.90;;;;;;;-143.84;69.17;45049.06;5108966;28;20504;-71
2022/05/23 02:01:36;;;;;;;13.33;3.00;;;;;;;-143.84;69.60;45028.13;5108799;28;20472;-71
2022/05/23 02:04:03;;;;;;;14.30;3.03;;;;;;;-143.84;70.38;45010.97;5108961;28;20436;-71
2022/05/23 02:06:30;;;;;;;8.53;2.93;;;;;;;-143.84;71.14;45030.03;5112664;28;20988;-71
2022/05/23 02:08:57;;;;;;;9.80;3.10;;;;;;;-143.84;70.61;45014.78;5112725;28;20440;-71
2022/05/23 02:11:24;;;;;;;4.10;2.47;;;;;;;-143.84;69.70;45026.22;5113132;27;21295;-70
2022/05/23 02:13:51;;;;;;;4.20;2.23;;;;;;;-143.84;66.85;45050.97;5112319;28;20446;-70
2022/05/23 02:16:22;;;;;;;8.30;2.43;;;;;;;-143.84;66.35;45054.78;5112062;27;20441;-71
2022/05/23 02:18:50;;;;;;;5.10;2.13;;;;;;;-143.84;65.42;45056.69;5112272;28;20440;-71
2022/05/23 02:21:18;;;;;;;9.90;2.47;;;;;;;-143.84;65.36;45035.75;5112870;28;20444;-71
2022/05/23 02:23:45;;;;;;;10.43;2.70;;;;;;;-143.84;65.17;45047.16;5112799;28;20550;-71
2022/05/23 02:26:12;;;;;;;4.80;2.27;;;;;;;-143.84;65.11;45041.44;5112901;28;20439;-71
2022/05/23 02:28:39;;;;;;;4.73;2.07;;;;;;;-143.84;64.70;45030.03;5112792;28;21109;-71
2022/05/23 02:31:07;;;;;;;5.87;2.07;;;;;;;-143.84;64.91;45035.75;5112938;28;20548;-71
2022/05/23 02:33:34;;;;;;;3.43;2.27;;;;;;;-143.84;65.02;45035.75;5112643;28;20443;-71
2022/05/23 02:36:02;;;;;;;4.70;2.60;;;;;;;-143.84;65.37;45035.75;5112663;28;21175;-71
2022/05/23 02:38:29;;;;;;;4.50;2.87;;;;;;;-143.84;65.50;45030.03;5112765;28;20455;-71
2022/05/23 02:40:57;;;;;;;5.47;2.80;;;;;;;-143.84;65.52;45037.66;5112512;28;20929;-71
2022/05/23 02:43:24;;;;;;;7.10;2.90;;;;;;;-143.84;65.48;45022.41;5112335;27;20468;-71
2022/05/23 02:45:52;;;;;;;3.50;2.70;;;;;;;-143.84;65.70;45037.66;5112461;28;20438;-71
2022/05/23 02:48:20;;;;;;;12.07;2.50;;;;;;;-143.84;65.76;45035.75;5111299;28;20439;-71
2022/05/23 02:50:47;;;;;;;3.90;2.40;;;;;;;-143.84;66.21;45049.06;5112159;28;20439;-71
2022/05/23 02:53:15;;;;;;;9.07;2.80;;;;;;;-143.84;66.13;45050.97;5112179;28;20439;-71
2022/05/23 02:55:43;;;;;;;7.57;2.20;;;;;;;-143.84;66.02;45043.34;5112316;28;20444;-71
2022/05/23 02:58:10;;;;;;;9.40;2.67;;;;;;;-143.84;66.07;45047.16;5112035;28;20511;-71
2022/05/23 03:00:38;;;;;;;8.27;3.13;;;;;;;-143.84;65.75;45024.31;5112010;28;20434;-71
2022/05/23 03:03:06;;;;;;;9.37;3.17;;;;;;;-143.84;66.10;45037.66;5105226;28;20478;-71
2022/05/23 03:05:38;;;;;;;7.33;3.00;;;;;;;-143.84;66.59;45047.16;5091531;28;20510;-71
2022/05/23 03:08:06;;;;;;;6.53;2.30;;;;;;;-143.84;66.61;45056.69;5091466;28;20435;-71
2022/05/23 03:10:35;;;;;;;7.13;2.90;;;;;;;-143.84;66.66;45064.31;5091489;28;20432;-71
2022/05/23 03:13:02;;;;;;;5.43;2.80;;;;;;;-143.84;66.62;45073.81;5091370;28;20461;-71
2022/05/23 03:15:30;;;;;;;3.63;2.57;;;;;;;-143.84;66.64;45026.22;5091154;28;20945;-72
2022/05/23 03:17:57;;;;;;;6.03;3.13;;;;;;;-143.84;66.50;45060.50;5091617;28;20869;-72
2022/05/23 03:20:25;;;;;;;6.53;2.40;;;;;;;-143.84;66.30;45043.34;5103544;28;20440;-72
2022/05/23 03:28:23;;;;;;;9.13;3.07;;;;;;;-143.84;65.73;45054.78;5092754;28;20420;-72
2022/05/23 03:30:51;;;;;;;2.77;2.57;;;;;;;-143.84;66.13;45037.66;5093640;28;20503;-73
2022/05/23 03:33:20;;;;;;;4.77;2.53;;;;;;;-143.84;66.45;45020.50;5111539;28;20483;-72
2022/05/23 03:35:47;;;;;;;8.63;2.80;;;;;;;-143.84;65.76;45075.72;5104909;28;20444;-73
2022/05/23 03:38:15;;;;;;;5.17;2.77;;;;;;;-143.84;65.47;45035.75;5089252;28;20477;-72
2022/05/23 03:40:44;;;;;;;9.10;2.77;;;;;;;-143.84;65.70;45064.31;5100109;28;20495;-72
2022/05/23 03:43:11;;;;;;;5.70;2.80;;;;;;;-143.84;64.98;45039.53;5110457;28;20474;-73
2022/05/23 03:45:38;;;;;;;9.43;2.50;;;;;;;-143.84;64.65;45066.22;5110508;28;20461;-73
2022/05/23 03:48:06;;;;;;;3.50;2.40;;;;;;;-143.84;64.63;45037.66;5110355;28;20431;-72
2022/05/23 03:50:35;;;;;;;13.90;2.77;;;;;;;-143.84;63.77;45030.03;5106990;28;20471;-72
2022/05/23 03:53:04;;;;;;;3.83;3.13;;;;;;;-143.84;63.80;45022.41;5092681;28;20438;-72
2022/05/23 03:55:32;;;;;;;7.63;3.87;;;;;;;-143.84;64.46;45056.69;5090820;28;20512;-73
2022/05/23 03:58:00;;;;;;;2.80;2.60;;;;;;;-143.84;64.47;45052.88;5090918;28;20425;-73
2022/05/23 04:00:28;;;;;;;10.00;2.70;;;;;;;-143.84;64.88;45037.66;5098978;28;20489;-70
2022/05/23 04:02:56;;;;;;;8.10;2.63;;;;;;;-143.84;65.14;45026.22;5104883;28;20532;-72
2022/05/23 04:05:23;;;;;;;10.93;3.10;;;;;;;-143.84;65.70;45047.16;5089354;28;20921;-72
2022/05/23 04:07:50;;;;;;;4.93;3.20;;;;;;;-143.84;65.85;45026.22;5098396;28;20454;-72
2022/05/23 04:10:18;;;;;;;8.17;2.93;;;;;;;-143.84;66.07;45037.66;5112796;27;20436;-72
2022/05/23 04:12:46;;;;;;;6.90;3.50;;;;;;;-143.84;66.38;45070.00;5090927;28;20979;-72
2022/05/23 04:15:15;;;;;;;8.00;2.50;;;;;;;-143.84;67.18;45064.31;5089570;28;20432;-72
2022/05/23 04:17:42;;;;;;;12.27;3.00;;;;;;;-143.84;67.18;45049.06;5089197;28;20447;-72
2022/05/23 04:20:11;;;;;;;10.10;3.03;;;;;;;-143.84;67.18;45060.50;5089475;28;20490;-72
2022/05/23 04:22:38;;;;;;;17.30;2.43;;;;;;;-143.84;67.28;45045.25;5089274;28;20839;-72
2022/05/23 04:25:07;;;;;;;9.83;2.93;;;;;;;-143.84;67.49;45031.94;5089912;28;20440;-72
2022/05/23 04:27:35;;;;;;;10.00;2.60;;;;;;;-143.84;67.68;45045.25;5089612;28;20449;-72
2022/05/23 04:30:02;;;;;;;5.00;2.83;;;;;;;-143.84;68.07;45033.84;5089799;28;20447;-72
2022/05/23 04:35:15;;;;;;;11.30;2.27;;;;;;;-143.84;66.90;45054.78;5089072;28;20427;-72
2022/05/23 04:37:42;;;;;;;9.20;3.13;;;;;;;-143.84;66.68;45077.63;5088280;28;20436;-72
2022/05/23 04:40:11;;;;;;;5.10;2.57;;;;;;;-143.84;66.73;45031.94;5088341;28;20498;-72
2022/05/23 04:42:38;;;;;;;5.20;2.67;;;;;;;-143.84;66.40;45054.78;5088536;28;20488;-72
2022/05/23 04:45:06;;;;;;;6.40;2.10;;;;;;;-143.84;66.17;45058.59;5088494;28;20443;-72
2022/05/23 04:50:19;;;;;;;9.47;2.60;;;;;;;-143.84;66.68;45045.25;5088693;28;20437;-72
2022/05/23 04:52:46;;;;;;;4.30;2.70;;;;;;;-143.84;67.16;45039.53;5089276;28;20456;-72
2022/05/23 04:55:13;;;;;;;6.50;2.50;;;;;;;-143.84;66.91;45052.88;5089270;28;20942;-72
2022/05/23 04:57:41;;;;;;;6.37;3.57;;;;;;;-143.84;67.11;45033.84;5089458;28;20446;-72
2022/05/23 05:00:11;;;;;;;13.23;2.37;;;;;;;-143.84;66.63;45049.06;5089258;28;20443;-72
2022/05/23 05:02:40;;;;;;;3.00;2.33;;;;;;;-143.84;67.00;45030.03;5088863;28;21002;-72
2022/05/23 05:05:08;;;;;;;10.17;2.47;;;;;;;-143.84;67.22;45049.06;5083073;28;20605;-72
2022/05/23 05:07:35;;;;;;;13.93;2.93;;;;;;;-143.84;66.86;45035.75;5068646;28;20502;-72
2022/05/23 05:10:03;;;;;;;11.17;2.83;;;;;;;-143.84;66.59;45035.75;5068907;28;20439;-72
2022/05/23 05:12:30;;;;;;;10.37;1.90;;;;;;;-143.84;65.07;45026.22;5068895;28;20947;-72
2022/05/23 05:14:57;;;;;;;5.90;2.57;;;;;;;-143.84;64.91;45060.50;5068782;28;20497;-72
2022/05/23 05:17:25;;;;;;;9.77;2.70;;;;;;;-143.84;64.20;45050.97;5068785;28;20438;-72
2022/05/23 05:19:54;;;;;;;6.77;2.60;;;;;;;-143.84;64.07;45012.88;5069066;28;20440;-72
2022/05/23 05:22:21;;;;;;;8.10;2.17;;;;;;;-143.84;64.08;45024.31;5068559;28;20487;-72
2022/05/23 05:24:48;;;;;;;7.53;2.37;;;;;;;-143.84;62.22;45022.41;5068926;28;20995;-72
2022/05/23 05:27:16;;;;;;;7.27;2.20;;;;;;;-143.84;60.09;45033.84;5068724;28;20439;-72
2022/05/23 05:29:43;;;;;;;4.80;2.07;;;;;;;-143.84;58.09;45035.75;5068830;28;20437;-72
2022/05/23 05:32:15;;;;;;;2.60;1.97;;;;;;;-143.84;57.40;45016.69;5068225;28;20440;-72
2022/05/23 05:34:47;;;;;;;6.40;2.00;;;;;;;-143.84;57.82;45028.13;5068494;28;20511;-72
2022/05/23 05:37:22;;;;;;;8.70;2.03;;;;;;;-143.84;57.43;45028.13;5068431;28;20436;-72
2022/05/23 05:39:52;;;;;;;7.73;2.70;;;;;;;-143.84;57.30;44986.22;5070143;28;20448;-72
2022/05/23 05:42:23;;;;;;;8.87;2.00;;;;;;;-143.84;56.62;45001.47;5072700;28;20437;-72
2022/05/23 05:44:58;;;;;;;6.80;1.90;;;;;;;-143.84;55.60;45028.13;5072642;28;20441;-72
2022/05/23 05:47:25;;;;;;;8.57;1.80;;;;;;;-143.84;55.00;45014.78;5072676;28;20522;-72
2022/05/23 05:49:58;;;;;;;8.53;2.70;;;;;;;-143.84;54.70;45010.97;5072681;28;20451;-72
2022/05/23 05:52:30;;;;;;;5.47;2.07;;;;;;;-143.84;54.56;44991.94;5072604;28;20463;-72
2022/05/23 05:54:58;;;;;;;3.73;2.00;;;;;;;-143.84;54.60;45014.78;5072433;28;20455;-72
2022/05/23 05:57:26;;;;;;;8.20;2.00;;;;;;;-143.84;53.72;45024.31;5072562;28;20449;-72
2022/05/23 05:59:53;;;;;;;8.70;2.10;;;;;;;-143.84;53.11;44988.13;5072501;28;20501;-72
2022/05/23 06:02:20;;;;;;;8.70;2.70;;;;;;;-143.84;51.30;45001.47;5072475;28;20436;-72
2022/05/23 06:04:48;;;;;;;9.93;2.50;;;;;;;-143.84;49.82;45003.38;5075142;28;20491;-72
2022/05/23 06:12:51;;;;;;;3.03;2.03;;;;;;;-143.84;45.23;44965.28;5092635;28;20443;-71
2022/05/23 06:15:18;;;;;;;9.87;1.90;;;;;;;-143.84;44.21;44993.84;5092189;28;20497;-72
2022/05/23 06:17:46;;;;;;;6.93;2.00;;;;;;;-143.84;42.56;44950.06;5092253;28;20489;-72
2022/05/23 06:20:14;;;;;;;7.57;1.90;;;;;;;-143.84;42.05;44978.63;5091503;28;20447;-72
2022/05/23 06:22:42;;;;;;;9.03;2.27;;;;;;;-143.84;42.02;44976.72;5091657;28;20444;-72
2022/05/23 06:25:11;;;;;;;9.80;2.03;;;;;;;-143.84;40.95;44980.53;5091750;28;20474;-72
2022/05/23 06:27:39;;;;;;;4.27;2.30;;;;;;;-143.84;42.26;44982.41;5091614;28;20452;-72
2022/05/23 06:30:09;;;;;;;4.60;1.83;;;;;;;-143.84;41.14;44974.81;5091748;28;20439;-72
2022/05/23 06:32:37;;;;;;;12.17;2.10;;;;;;;-143.84;39.83;44957.66;5092327;28;20515;-72
2022/05/23 06:35:07;;;;;;;5.70;1.50;;;;;;;-143.84;39.54;44927.19;5091196;28;20452;-72
2022/05/23 06:37:35;;;;;;;8.53;1.43;;;;;;;-143.84;39.97;44934.81;5091463;28;20444;-72
2022/05/23 06:40:03;;;;;;;7.20;1.87;;;;;;;-143.84;39.46;44965.28;5091290;28;20440;-72
2022/05/23 06:42:32;;;;;;;12.07;1.67;;;;;;;-143.84;39.03;44948.16;5092899;28;20432;-72
2022/05/23 06:44:59;;;;;;;8.27;1.80;;;;;;;-143.84;39.05;44974.81;5093826;28;20463;-72
2022/05/23 06:47:26;;;;;;;7.83;2.13;;;;;;;-143.84;37.51;44944.34;5092718;28;20436;-72
2022/05/23 06:49:54;;;;;;;5.13;2.00;;;;;;;-143.84;38.19;44938.63;5092012;28;20444;-72
2022/05/23 06:52:21;;;;;;;6.80;1.90;;;;;;;-143.84;37.87;44963.38;5092375;28;20424;-73
2022/05/23 06:54:49;;;;;;;10.77;2.07;;;;;;;-143.84;37.42;44940.53;5093433;28;20447;-73
2022/05/23 06:57:16;;;;;;;5.30;1.40;;;;;;;-143.84;37.69;44921.50;5091900;28;20941;-73
2022/05/23 06:59:44;;;;;;;6.90;1.70;;;;;;;-143.84;36.31;44910.06;5092962;28;20493;-73
2022/05/23 07:02:12;;;;;;;6.40;1.50;;;;;;;-143.84;36.39;44915.78;5093663;28;20463;-73
2022/05/23 07:12:55;;;;;;;2.23;1.70;;;;;;;-143.84;35.33;44919.59;5092970;28;20419;-73
2022/05/23 07:15:24;;;;;;;6.50;2.30;;;;;;;-143.84;36.22;44934.81;5093041;28;20440;-73
2022/05/23 07:17:51;;;;;;;7.23;1.70;;;;;;;-143.84;36.07;44929.09;5092721;28;20461;-73
2022/05/23 07:20:18;;;;;;;8.10;2.37;;;;;;;-143.84;35.45;44934.81;5092849;28;20440;-73
2022/05/23 07:22:45;;;;;;;3.33;1.70;;;;;;;-143.84;35.67;44919.59;5092738;28;20497;-71
2022/05/23 07:25:13;;;;;;;7.43;1.93;;;;;;;-143.84;35.96;44927.19;5093111;28;21051;-72
2022/05/23 07:27:41;;;;;;;3.40;1.83;;;;;;;-143.84;35.73;44913.88;5092745;28;20436;-72
2022/05/23 07:30:09;;;;;;;5.07;1.80;;;;;;;-143.84;36.30;44911.97;5091348;28;20472;-72
2022/05/23 07:32:38;;;;;;;4.70;2.30;;;;;;;-143.84;36.10;44911.97;5092264;28;20451;-72
2022/05/23 07:35:07;;;;;;;2.70;1.73;;;;;;;-143.84;36.04;44915.78;5092905;28;20440;-72
2022/05/23 07:37:34;;;;;;;8.10;1.90;;;;;;;-143.84;36.35;44915.78;5074401;28;20976;-72
2022/05/23 07:40:01;;;;;;;10.53;1.60;;;;;;;-143.84;36.50;44919.59;5092481;28;20436;-72
2022/05/23 07:42:29;;;;;;;6.50;3.40;;;;;;;-143.84;37.33;44936.72;5092422;28;20446;-71
2022/05/23 07:44:56;;;;;;;14.53;2.63;;;;;;;-143.84;37.94;44917.69;5092340;28;20484;-72
2022/05/23 07:47:24;;;;;;;7.37;2.23;;;;;;;-143.84;38.16;44904.34;5092883;28;20436;-72
2022/05/23 07:49:53;;;;;;;3.60;2.10;;;;;;;-143.84;38.63;44932.91;5092782;28;20440;-71
2022/05/23 07:52:20;;;;;;;4.00;1.80;;;;;;;-143.84;38.66;44934.81;5092369;28;20446;-72
2022/05/23 08:00:32;;;;;;;7.20;2.30;;;;;;;-143.84;39.07;44938.63;5092193;28;20535;-72
2022/05/23 08:03:01;;;;;;;9.43;1.97;;;;;;;-143.84;38.32;44925.31;5091087;28;20436;-71
2022/05/23 08:05:29;;;;;;;13.67;1.97;;;;;;;-143.84;39.09;44931.00;5096829;28;20540;-72
2022/05/23 08:07:57;;;;;;;11.50;2.20;;;;;;;-143.84;39.86;44969.09;5112378;28;20921;-72
2022/05/23 08:10:25;;;;;;;9.73;2.60;;;;;;;-143.84;40.17;44950.06;5111908;28;20820;-72
2022/05/23 08:12:54;;;;;;;7.17;2.20;;;;;;;-143.84;40.37;44934.81;5112268;28;20432;-72
2022/05/23 08:15:22;;;;;;;6.23;2.90;;;;;;;-143.84;41.25;44931.00;5112345;28;20430;-72
2022/05/23 08:17:49;;;;;;;5.00;2.10;;;;;;;-143.84;41.86;44932.91;5112216;28;20446;-72
2022/05/23 08:20:17;;;;;;;5.20;2.37;;;;;;;-143.84;41.37;44942.44;5112399;28;20427;-72
2022/05/23 08:22:51;;;;;;;14.80;2.70;;;;;;;-143.84;40.79;44955.75;5111324;28;20435;-72
2022/05/23 08:25:19;;;;;;;4.47;2.23;;;;;;;-143.84;40.96;44955.75;5111605;28;20474;-72
2022/05/23 08:27:47;;;;;;;7.57;1.80;;;;;;;-143.84;42.28;44951.97;5112240;28;20450;-75
2022/05/23 08:30:17;;;;;;;8.47;2.17;;;;;;;-143.84;40.66;44974.81;5111802;28;20435;-72
2022/05/23 08:32:44;;;;;;;2.93;2.03;;;;;;;-143.84;41.97;44946.25;5111276;28;20427;-72
2022/05/23 08:35:12;;;;;;;8.17;2.30;;;;;;;-143.84;41.91;44972.91;5110840;28;20443;-73
2022/05/23 08:37:39;;;;;;;5.13;2.17;;;;;;;-143.84;42.80;44965.28;5111146;28;20463;-73
2022/05/23 08:40:10;;;;;;;5.37;2.03;;;;;;;-143.84;43.33;44965.28;5108448;28;21037;-73
2022/05/23 08:42:53;;;;;;;8.40;1.77;;;;;;;-143.84;44.04;44957.66;5102800;28;20436;-73
2022/05/23 08:45:23;;;;;;;5.73;2.00;;;;;;;-143.84;44.81;44955.75;5108442;28;20485;-73
2022/05/23 08:48:00;;;;;;;3.43;2.23;;;;;;;-143.84;45.27;44957.66;5100117;28;20447;-73
2022/05/23 08:50:42;;;;;;;6.73;2.40;;;;;;;-143.84;45.86;44953.88;5100069;28;20427;-73
2022/05/23 08:53:15;;;;;;;12.97;2.27;;;;;;;-143.84;45.59;44959.56;5099328;28;20443;-73
2022/05/23 08:55:48;;;;;;;14.60;2.33;;;;;;;-143.84;44.82;44972.91;5097004;28;20436;-73
2022/05/23 08:58:21;;;;;;;5.83;2.80;;;;;;;-143.84;45.76;44974.81;5094577;28;20444;-73
2022/05/23 09:00:52;;;;;;;8.63;2.60;;;;;;;-143.84;46.02;44984.31;5107906;28;20442;-73
2022/05/23 09:03:24;;;;;;;12.67;3.03;;;;;;;-143.84;45.36;44957.66;5099422;28;20420;-73
2022/05/23 09:05:55;;;;;;;2.90;2.67;;;;;;;-143.84;45.92;44959.56;5100383;28;20532;-73
2022/05/23 09:08:26;;;;;;;6.70;3.00;;;;;;;-143.84;44.84;44959.56;5111522;28;20419;-73
2022/05/23 09:10:59;;;;;;;7.23;2.40;;;;;;;-143.84;47.34;44959.56;5111899;28;20488;-73
2022/05/23 09:13:30;;;;;;;9.87;2.63;;;;;;;-143.84;48.20;44942.44;5111504;28;20504;-73
2022/05/23 09:16:04;;;;;;;9.00;2.43;;;;;;;-143.84;48.30;44963.38;5111170;28;20435;-73
2022/05/23 09:18:40;;;;;;;4.30;2.40;;;;;;;-143.84;48.19;44965.28;5108723;28;20450;-71
2022/05/23 09:21:09;;;;;;;10.03;2.47;;;;;;;-143.84;49.12;44969.09;5091385;28;20474;-72
2022/05/23 09:23:43;;;;;;;4.57;2.30;;;;;;;-143.84;47.80;44967.19;5091898;28;21756;-73
2022/05/23 09:26:19;;;;;;;8.27;2.40;;;;;;;-143.84;48.78;44995.75;5105667;28;20443;-73
2022/05/23 09:28:46;;;;;;;9.30;3.00;;;;;;;-143.84;48.30;44980.53;5111886;28;20475;-73
2022/05/23 09:31:19;;;;;;;7.60;2.60;;;;;;;-143.84;48.05;44986.22;5111525;28;20462;-73
2022/05/23 09:33:51;;;;;;;12.97;2.60;;;;;;;-143.84;47.97;44959.56;5111454;28;20495;-73
2022/05/23 09:36:21;;;;;;;4.17;2.30;;;;;;;-143.84;48.46;44974.81;5111314;28;20443;-73
2022/05/23 09:38:56;;;;;;;4.97;2.17;;;;;;;-143.84;49.14;44980.53;5111512;28;20434;-73
2022/05/23 09:49:49;;;;;;;16.03;3.43;;;;;;;-143.84;49.08;44967.19;5110060;28;20472;-72
2022/05/23 09:52:20;;;;;;;6.23;2.00;;;;;;;-143.84;48.07;44984.31;5111137;28;20447;-72
2022/05/23 09:54:52;;;;;;;13.80;2.63;;;;;;;-143.84;47.36;44972.91;5111192;28;20449;-72
2022/05/23 09:57:25;;;;;;;4.97;2.50;;;;;;;-143.84;48.14;44961.47;5111185;28;20855;-73
2022/05/23 09:59:59;;;;;;;4.67;2.60;;;;;;;-143.84;48.38;44972.91;5110950;28;20466;-72
2022/05/23 10:02:39;;;;;;;7.87;2.43;;;;;;;-143.84;48.90;44984.31;5110878;28;20439;-72
2022/05/23 10:05:21;;;;;;;4.50;2.43;;;;;;;-143.84;50.57;45003.38;5110847;28;20494;-72
2022/05/23 10:07:52;;;;;;;11.63;2.53;;;;;;;-143.84;50.32;44982.41;5108873;28;20487;-72
2022/05/23 10:10:22;;;;;;;8.70;2.50;;;;;;;-143.84;50.53;45014.78;5108855;28;20531;-72
2022/05/23 10:12:51;;;;;;;17.10;2.37;;;;;;;-143.84;51.82;44991.94;5108674;28;20472;-72
2022/05/23 10:15:24;;;;;;;13.00;3.00;;;;;;;-143.84;52.45;44984.31;5108815;28;20447;-72
2022/05/23 10:18:02;;;;;;;11.20;3.13;;;;;;;-143.84;53.85;44965.28;5108143;28;20446;-72
2022/05/23 10:20:32;;;;;;;7.80;2.40;;;;;;;-143.84;53.60;44978.63;5108287;28;20447;-72
2022/05/23 10:23:02;;;;;;;17.40;2.87;;;;;;;-143.84;55.08;44991.94;5108696;28;20447;-72
2022/05/23 10:25:36;;;;;;;12.60;2.80;;;;;;;-143.84;57.07;45005.28;5109114;28;21065;-72
2022/05/23 10:28:11;;;;;;;8.07;2.97;;;;;;;-143.84;58.82;44997.66;5112563;28;20960;-72
2022/05/23 10:30:41;;;;;;;7.13;2.57;;;;;;;-143.84;59.71;45003.38;5112688;28;20993;-72
2022/05/23 10:33:11;;;;;;;7.13;2.90;;;;;;;-143.84;60.68;45003.38;5112545;28;20431;-72
2022/05/23 10:35:44;;;;;;;16.13;2.67;;;;;;;-143.84;61.67;45012.88;5112415;27;20468;-72
2022/05/23 10:43:58;;;;;;;8.97;3.37;;;;;;;-143.84;66.47;45012.88;5112281;28;20449;-72
2022/05/23 10:46:28;;;;;;;5.43;3.23;;;;;;;-143.84;67.70;44984.31;5112170;28;20439;-72
2022/05/23 10:49:02;;;;;;;4.87;3.10;;;;;;;-143.84;67.88;45020.50;5112224;28;20445;-72
2022/05/23 10:51:38;;;;;;;9.53;2.63;;;;;;;-143.84;67.67;45020.50;5112049;28;20500;-72
2022/05/23 10:54:21;;;;;;;10.50;3.40;;;;;;;-143.84;68.86;45007.19;5112190;28;20496;-72
2022/05/23 10:57:11;;;;;;;9.23;3.30;;;;;;;-143.84;69.95;44986.22;5111493;28;20427;-72
2022/05/23 10:59:43;;;;;;;10.80;2.97;;;;;;;-143.84;70.59;44993.84;5111396;28;20500;-72
2022/05/23 11:02:28;;;;;;;7.43;3.20;;;;;;;-143.84;71.08;45010.97;5110473;28;20462;-72
2022/05/23 11:05:09;;;;;;;5.47;3.60;;;;;;;-143.84;68.46;45005.28;5111525;28;20489;-72
2022/05/23 11:08:00;;;;;;;14.13;3.10;;;;;;;-143.84;67.87;45010.97;5111837;28;21196;-72
2022/05/23 11:10:34;;;;;;;13.20;2.43;;;;;;;-143.84;65.43;45005.28;5111491;28;20446;-72
2022/05/23 11:13:18;;;;;;;4.13;2.00;;;;;;;-143.84;63.43;45012.88;5111348;28;20438;-72
2022/05/23 11:16:16;;;;;;;14.53;2.00;;;;;;;-143.84;62.69;45005.28;5102279;28;20497;-72
2022/05/23 11:19:03;;;;;;;9.23;2.43;;;;;;;-143.84;63.18;45007.19;5082575;28;21058;-71
2022/05/23 11:21:38;;;;;;;10.13;2.67;;;;;;;-143.84;63.13;44984.31;5094866;28;21199;-72
2022/05/23 11:24:09;;;;;;;5.17;2.20;;;;;;;-143.84;64.05;45016.69;5095782;28;20470;-72
2022/05/23 11:26:42;;;;;;;9.90;2.30;;;;;;;-143.84;63.35;45033.84;5093520;28;20965;-72
2022/05/23 11:34:53;;;;;;;8.70;2.40;;;;;;;-143.84;63.47;45020.50;5094336;28;20848;-72
2022/05/23 11:40:10;;;;;;;4.33;1.80;;;;;;;-143.84;62.80;45022.41;5093772;28;20914;-72
2022/05/23 11:42:43;;;;;;;6.73;2.20;;;;;;;-143.84;61.86;44999.56;5094001;28;20441;-72
2022/05/23 11:49:00;;;;;;;8.43;2.70;;;;;;;-143.84;64.87;45007.19;5052439;28;20547;-72
2022/05/23 11:51:41;;;;;;;7.53;1.97;;;;;;;-143.84;65.23;45009.09;5093026;28;20463;-72
2022/05/23 11:54:14;;;;;;;8.93;1.70;;;;;;;-143.84;66.74;45016.69;5094107;28;20443;-72
2022/05/23 11:57:11;;;;;;;8.57;2.27;;;;;;;-143.84;65.60;44991.94;5094910;28;20500;-72
2022/05/23 12:00:02;;;;;;;6.97;1.90;;;;;;;-143.84;60.25;45009.09;5092456;28;20475;-72
2022/05/23 12:02:29;;;;;;;5.10;2.00;;;;;;;-143.84;61.32;45007.19;5091285;28;21356;-72
2022/05/23 12:05:30;;;;;;;3.17;1.90;;;;;;;-143.84;60.29;44988.13;5093618;28;20545;-73
2022/05/23 12:08:19;;;;;;;3.07;1.90;;;;;;;-143.84;58.28;44984.31;5094677;28;21203;-72
2022/05/23 12:11:02;;;;;;;14.77;2.63;;;;;;;-143.84;59.03;45009.09;5093562;28;20458;-72
2022/05/23 12:13:58;;;;;;;12.30;2.37;;;;;;;-143.84;58.82;45007.19;5095009;28;20596;-72
2022/05/23 12:17:00;;;;;;;5.50;2.43;;;;;;;-143.84;57.11;45007.19;5092356;28;20526;-72
2022/05/23 12:19:50;;;;;;;7.10;1.93;;;;;;;-143.84;57.06;44995.75;5093957;28;20448;-72
2022/05/23 12:22:26;;;;;;;2.40;1.93;;;;;;;-143.84;55.98;44980.53;5092168;28;20454;-72
2022/05/23 12:25:21;;;;;;;3.80;2.27;;;;;;;-143.84;57.05;44997.66;5093904;28;20558;-72
2022/05/23 12:28:14;;;;;;;13.00;2.43;;;;;;;-143.84;58.15;44999.56;5095961;28;20488;-76
2022/05/23 12:31:05;;;;;;;5.13;2.13;;;;;;;-143.84;57.11;45020.50;5091540;28;20450;-76
2022/05/23 12:33:33;;;;;;;10.90;2.43;;;;;;;-143.84;59.60;44997.66;5100115;28;21029;-75
2022/05/23 12:36:08;;;;;;;12.13;1.87;;;;;;;-143.84;60.07;45052.88;5098988;28;20492;-76